sensor_id;sensor_type;location;lat;lon;timestamp;pressure;altitude;pressure_sealevel;temperature;humidity
55460;BME280;41326;45.302;-122.946;2023-04-20T00:01:08;101820.61;;;18.26;50.77
55460;BME280;41326;45.302;-122.946;2023-04-20T00:03:39;101821.19;;;18.43;50.55
55460;BME280;41326;45.302;-122.946;2023-04-20T00:06:09;101823.09;;;18.37;51.00
55460;BME280;41326;45.302;-122.946;2023-04-20T00:08:40;101822.73;;;18.25;51.36
55460;BME280;41326;45.302;-122.946;2023-04-20T00:11:10;101826.69;;;18.22;51.30
55460;BME280;41326;45.302;-122.946;2023-04-20T00:13:41;101827.47;;;18.34;50.97
55460;BME280;41326;45.302;-122.946;2023-04-20T00:16:11;101823.44;;;18.48;50.75
55460;BME280;41326;45.302;-122.946;2023-04-20T00:18:42;101827.86;;;18.48;50.80
55460;BME280;41326;45.302;-122.946;2023-04-20T00:21:12;101830.83;;;18.39;51.14
55460;BME280;41326;45.302;-122.946;2023-04-20T00:23:42;101832.25;;;18.35;51.29
55460;BME280;41326;45.302;-122.946;2023-04-20T00:26:13;101833.99;;;18.27;51.52
55460;BME280;41326;45.302;-122.946;2023-04-20T00:28:43;101836.96;;;18.27;51.57
55460;BME280;41326;45.302;-122.946;2023-04-20T00:31:13;101838.11;;;18.21;51.75
55460;BME280;41326;45.302;-122.946;2023-04-20T00:33:44;101838.98;;;18.17;51.81
55460;BME280;41326;45.302;-122.946;2023-04-20T00:36:14;101843.88;;;18.10;52.07
55460;BME280;41326;45.302;-122.946;2023-04-20T00:38:45;101841.93;;;18.23;51.60
55460;BME280;41326;45.302;-122.946;2023-04-20T00:41:15;101847.79;;;18.40;51.26
55460;BME280;41326;45.302;-122.946;2023-04-20T00:43:50;101846.28;;;18.43;51.24
55460;BME280;41326;45.302;-122.946;2023-04-20T00:46:16;101852.99;;;18.37;51.45
55460;BME280;41326;45.302;-122.946;2023-04-20T00:48:46;101853.76;;;18.32;51.65
55460;BME280;41326;45.302;-122.946;2023-04-20T00:51:17;101855.38;;;18.31;51.69
55460;BME280;41326;45.302;-122.946;2023-04-20T00:53:47;101854.56;;;18.24;51.88
55460;BME280;41326;45.302;-122.946;2023-04-20T00:56:17;101857.45;;;18.22;51.94
55460;BME280;41326;45.302;-122.946;2023-04-20T00:58:47;101856.78;;;18.23;51.83
55460;BME280;41326;45.302;-122.946;2023-04-20T01:01:18;101861.74;;;18.34;51.43
55460;BME280;41326;45.302;-122.946;2023-04-20T01:03:49;101861.03;;;18.53;50.97
55460;BME280;41326;45.302;-122.946;2023-04-20T01:06:19;101867.15;;;18.54;51.09
55460;BME280;41326;45.302;-122.946;2023-04-20T01:08:51;101869.51;;;18.46;51.43
55460;BME280;41326;45.302;-122.946;2023-04-20T01:11:19;101873.70;;;18.43;51.53
55460;BME280;41326;45.302;-122.946;2023-04-20T01:13:50;101873.21;;;18.37;51.83
55460;BME280;41326;45.302;-122.946;2023-04-20T01:16:20;101874.12;;;18.38;52.03
55460;BME280;41326;45.302;-122.946;2023-04-20T01:18:51;101878.14;;;18.32;52.73
55460;BME280;41326;45.302;-122.946;2023-04-20T01:21:22;101880.24;;;18.36;52.92
55460;BME280;41326;45.302;-122.946;2023-04-20T01:23:51;101882.69;;;18.30;54.81
55460;BME280;41326;45.302;-122.946;2023-04-20T01:26:22;101887.98;;;18.27;55.68
55460;BME280;41326;45.302;-122.946;2023-04-20T01:28:52;101889.02;;;18.32;55.61
55460;BME280;41326;45.302;-122.946;2023-04-20T01:31:23;101895.14;;;18.36;55.40
55460;BME280;41326;45.302;-122.946;2023-04-20T01:33:53;101896.76;;;18.34;55.41
55460;BME280;41326;45.302;-122.946;2023-04-20T01:36:23;101896.57;;;18.31;55.52
55460;BME280;41326;45.302;-122.946;2023-04-20T01:38:54;101899.57;;;18.39;55.03
55460;BME280;41326;45.302;-122.946;2023-04-20T01:41:24;101901.24;;;18.43;54.70
55460;BME280;41326;45.302;-122.946;2023-04-20T01:43:54;101900.69;;;18.38;54.94
55460;BME280;41326;45.302;-122.946;2023-04-20T01:46:24;101904.72;;;18.45;55.42
55460;BME280;41326;45.302;-122.946;2023-04-20T01:48:55;101908.33;;;18.45;54.89
55460;BME280;41326;45.302;-122.946;2023-04-20T01:51:25;101907.68;;;18.45;54.76
55460;BME280;41326;45.302;-122.946;2023-04-20T01:53:55;101906.13;;;18.40;54.89
55460;BME280;41326;45.302;-122.946;2023-04-20T01:56:27;101910.38;;;18.39;54.68
55460;BME280;41326;45.302;-122.946;2023-04-20T01:58:56;101917.22;;;18.41;54.39
55460;BME280;41326;45.302;-122.946;2023-04-20T02:01:26;101924.93;;;18.38;54.32
55460;BME280;41326;45.302;-122.946;2023-04-20T02:03:57;101923.40;;;18.41;54.19
55460;BME280;41326;45.302;-122.946;2023-04-20T02:06:27;101933.14;;;18.32;54.07
55460;BME280;41326;45.302;-122.946;2023-04-20T02:08:57;101935.53;;;18.24;53.35
55460;BME280;41326;45.302;-122.946;2023-04-20T02:11:27;101942.38;;;18.09;52.96
55460;BME280;41326;45.302;-122.946;2023-04-20T02:13:57;101944.65;;;18.03;52.30
55460;BME280;41326;45.302;-122.946;2023-04-20T02:16:28;101945.30;;;17.99;51.22
55460;BME280;41326;45.302;-122.946;2023-04-20T02:18:58;101949.84;;;17.98;51.14
55460;BME280;41326;45.302;-122.946;2023-04-20T02:22:36;101949.54;;;17.84;51.46
55460;BME280;41326;45.302;-122.946;2023-04-20T02:25:07;101948.95;;;17.69;51.75
55460;BME280;41326;45.302;-122.946;2023-04-20T02:27:37;101950.95;;;17.77;51.03
55460;BME280;41326;45.302;-122.946;2023-04-20T02:30:08;101957.38;;;17.83;50.46
55460;BME280;41326;45.302;-122.946;2023-04-20T02:32:38;101960.85;;;17.93;49.85
55460;BME280;41326;45.302;-122.946;2023-04-20T02:35:09;101961.07;;;18.09;49.31
55460;BME280;41326;45.302;-122.946;2023-04-20T02:37:39;101963.56;;;18.23;49.09
55460;BME280;41326;45.302;-122.946;2023-04-20T02:40:09;101963.49;;;18.30;48.93
55460;BME280;41326;45.302;-122.946;2023-04-20T02:42:40;101968.46;;;18.25;49.12
55460;BME280;41326;45.302;-122.946;2023-04-20T02:45:10;101968.22;;;18.18;48.77
55460;BME280;41326;45.302;-122.946;2023-04-20T02:47:40;101972.23;;;18.11;48.83
55460;BME280;41326;45.302;-122.946;2023-04-20T02:50:11;101973.87;;;18.05;48.63
55460;BME280;41326;45.302;-122.946;2023-04-20T02:52:47;101977.79;;;18.05;48.09
55460;BME280;41326;45.302;-122.946;2023-04-20T02:55:18;101980.56;;;18.10;48.10
55460;BME280;41326;45.302;-122.946;2023-04-20T02:57:49;101986.44;;;18.30;47.58
55460;BME280;41326;45.302;-122.946;2023-04-20T03:00:19;101991.02;;;18.34;47.87
55460;BME280;41326;45.302;-122.946;2023-04-20T03:02:50;101989.91;;;18.28;47.86
55460;BME280;41326;45.302;-122.946;2023-04-20T03:05:20;101995.27;;;18.15;47.98
55460;BME280;41326;45.302;-122.946;2023-04-20T03:07:50;102000.56;;;18.05;47.97
55460;BME280;41326;45.302;-122.946;2023-04-20T03:10:20;102000.94;;;18.04;47.62
55460;BME280;41326;45.302;-122.946;2023-04-20T03:12:51;102003.99;;;18.11;47.35
55460;BME280;41326;45.302;-122.946;2023-04-20T03:15:21;102006.14;;;18.23;47.21
55460;BME280;41326;45.302;-122.946;2023-04-20T03:17:51;102008.18;;;18.29;47.57
55460;BME280;41326;45.302;-122.946;2023-04-20T03:20:22;102007.90;;;18.29;47.43
55460;BME280;41326;45.302;-122.946;2023-04-20T03:22:52;102007.62;;;18.14;46.95
55460;BME280;41326;45.302;-122.946;2023-04-20T03:25:23;102010.20;;;17.96;47.52
55460;BME280;41326;45.302;-122.946;2023-04-20T03:27:54;102019.04;;;17.96;47.40
55460;BME280;41326;45.302;-122.946;2023-04-20T03:30:24;102025.87;;;18.09;44.92
55460;BME280;41326;45.302;-122.946;2023-04-20T03:32:54;102031.05;;;18.11;46.07
55460;BME280;41326;45.302;-122.946;2023-04-20T03:35:24;102031.84;;;17.95;46.57
55460;BME280;41326;45.302;-122.946;2023-04-20T03:37:55;102036.37;;;17.87;46.81
55460;BME280;41326;45.302;-122.946;2023-04-20T03:40:25;102041.79;;;17.73;46.72
55460;BME280;41326;45.302;-122.946;2023-04-20T03:42:56;102046.25;;;17.60;47.58
55460;BME280;41326;45.302;-122.946;2023-04-20T03:45:27;102051.87;;;17.72;46.81
55460;BME280;41326;45.302;-122.946;2023-04-20T03:47:56;102052.24;;;17.83;45.47
55460;BME280;41326;45.302;-122.946;2023-04-20T03:50:27;102059.45;;;17.90;46.14
55460;BME280;41326;45.302;-122.946;2023-04-20T03:52:57;102067.64;;;17.84;46.20
55460;BME280;41326;45.302;-122.946;2023-04-20T03:55:27;102077.28;;;17.78;45.46
55460;BME280;41326;45.302;-122.946;2023-04-20T03:57:59;102080.93;;;17.65;46.91
55460;BME280;41326;45.302;-122.946;2023-04-20T04:00:28;102081.92;;;17.83;45.02
55460;BME280;41326;45.302;-122.946;2023-04-20T04:02:58;102081.62;;;17.80;45.00
55460;BME280;41326;45.302;-122.946;2023-04-20T04:05:29;102081.26;;;17.71;46.00
55460;BME280;41326;45.302;-122.946;2023-04-20T04:07:59;102084.72;;;17.58;46.51
55460;BME280;41326;45.302;-122.946;2023-04-20T04:10:29;102089.54;;;17.44;46.52
55460;BME280;41326;45.302;-122.946;2023-04-20T04:12:59;102095.18;;;17.17;47.94
55460;BME280;41326;45.302;-122.946;2023-04-20T04:15:30;102099.13;;;17.14;47.93
55460;BME280;41326;45.302;-122.946;2023-04-20T04:18:00;102100.75;;;17.21;46.70
55460;BME280;41326;45.302;-122.946;2023-04-20T04:20:30;102107.59;;;17.20;47.95
55460;BME280;41326;45.302;-122.946;2023-04-20T04:23:01;102107.79;;;17.19;48.48
55460;BME280;41326;45.302;-122.946;2023-04-20T04:25:31;102110.47;;;17.16;48.98
55460;BME280;41326;45.302;-122.946;2023-04-20T04:28:02;102111.58;;;17.13;49.41
55460;BME280;41326;45.302;-122.946;2023-04-20T04:30:32;102114.16;;;17.17;49.55
55460;BME280;41326;45.302;-122.946;2023-04-20T04:33:02;102117.20;;;17.20;49.68
55460;BME280;41326;45.302;-122.946;2023-04-20T04:35:33;102121.24;;;17.28;49.62
55460;BME280;41326;45.302;-122.946;2023-04-20T04:38:03;102125.79;;;17.30;49.74
55460;BME280;41326;45.302;-122.946;2023-04-20T04:40:34;102130.92;;;17.37;49.69
55460;BME280;41326;45.302;-122.946;2023-04-20T04:43:05;102139.88;;;17.36;49.89
55460;BME280;41326;45.302;-122.946;2023-04-20T04:45:36;102145.82;;;17.33;50.09
55460;BME280;41326;45.302;-122.946;2023-04-20T04:48:05;102141.81;;;17.32;50.22
55460;BME280;41326;45.302;-122.946;2023-04-20T04:50:35;102143.26;;;17.30;50.36
55460;BME280;41326;45.302;-122.946;2023-04-20T04:53:05;102146.12;;;17.29;50.52
55460;BME280;41326;45.302;-122.946;2023-04-20T04:55:35;102147.25;;;17.32;50.41
55460;BME280;41326;45.302;-122.946;2023-04-20T04:58:06;102145.28;;;17.36;50.34
55460;BME280;41326;45.302;-122.946;2023-04-20T05:00:36;102144.92;;;17.35;50.47
55460;BME280;41326;45.302;-122.946;2023-04-20T05:03:06;102149.45;;;17.33;50.53
55460;BME280;41326;45.302;-122.946;2023-04-20T05:05:36;102154.67;;;17.30;50.69
55460;BME280;41326;45.302;-122.946;2023-04-20T05:08:07;102157.60;;;17.31;50.68
55460;BME280;41326;45.302;-122.946;2023-04-20T05:10:37;102161.78;;;17.32;50.61
55460;BME280;41326;45.302;-122.946;2023-04-20T05:13:08;102164.19;;;17.26;50.84
55460;BME280;41326;45.302;-122.946;2023-04-20T05:15:38;102163.85;;;17.25;50.89
55460;BME280;41326;45.302;-122.946;2023-04-20T05:18:09;102163.05;;;17.32;50.70
55460;BME280;41326;45.302;-122.946;2023-04-20T05:20:39;102161.99;;;17.30;50.72
55460;BME280;41326;45.302;-122.946;2023-04-20T05:23:10;102163.03;;;17.25;50.89
55460;BME280;41326;45.302;-122.946;2023-04-20T05:25:40;102165.87;;;17.22;50.98
55460;BME280;41326;45.302;-122.946;2023-04-20T05:28:10;102166.19;;;17.23;50.94
55460;BME280;41326;45.302;-122.946;2023-04-20T05:30:40;102163.38;;;17.20;51.00
55460;BME280;41326;45.302;-122.946;2023-04-20T05:33:10;102161.19;;;17.17;51.09
55460;BME280;41326;45.302;-122.946;2023-04-20T05:35:41;102159.59;;;17.16;51.08
55460;BME280;41326;45.302;-122.946;2023-04-20T05:38:11;102162.16;;;17.24;50.79
55460;BME280;41326;45.302;-122.946;2023-04-20T05:40:42;102163.74;;;17.24;50.76
55460;BME280;41326;45.302;-122.946;2023-04-20T05:43:12;102163.56;;;17.16;51.01
55460;BME280;41326;45.302;-122.946;2023-04-20T05:45:42;102164.61;;;17.12;51.18
55460;BME280;41326;45.302;-122.946;2023-04-20T05:48:12;102171.85;;;17.09;51.24
55460;BME280;41326;45.302;-122.946;2023-04-20T05:50:43;102175.59;;;17.08;51.27
55460;BME280;41326;45.302;-122.946;2023-04-20T05:53:13;102179.98;;;17.03;51.39
55460;BME280;41326;45.302;-122.946;2023-04-20T05:55:44;102178.49;;;17.00;51.46
55460;BME280;41326;45.302;-122.946;2023-04-20T05:58:14;102180.68;;;16.99;51.46
55460;BME280;41326;45.302;-122.946;2023-04-20T06:00:45;102180.17;;;17.00;51.40
55460;BME280;41326;45.302;-122.946;2023-04-20T06:03:15;102185.25;;;16.95;51.57
55460;BME280;41326;45.302;-122.946;2023-04-20T06:05:45;102190.81;;;16.95;51.67
55460;BME280;41326;45.302;-122.946;2023-04-20T06:08:16;102195.30;;;16.97;51.50
55460;BME280;41326;45.302;-122.946;2023-04-20T06:10:46;102195.23;;;16.94;51.59
55460;BME280;41326;45.302;-122.946;2023-04-20T06:13:16;102195.63;;;16.91;51.79
55460;BME280;41326;45.302;-122.946;2023-04-20T06:15:47;102198.99;;;16.91;51.63
55460;BME280;41326;45.302;-122.946;2023-04-20T06:18:17;102197.62;;;16.91;51.64
55460;BME280;41326;45.302;-122.946;2023-04-20T06:20:48;102201.93;;;16.90;51.65
55460;BME280;41326;45.302;-122.946;2023-04-20T06:23:18;102201.83;;;16.91;51.55
55460;BME280;41326;45.302;-122.946;2023-04-20T06:25:48;102205.68;;;16.92;51.56
55460;BME280;41326;45.302;-122.946;2023-04-20T06:28:18;102206.68;;;16.87;51.71
55460;BME280;41326;45.302;-122.946;2023-04-20T06:30:49;102211.14;;;16.80;51.91
55460;BME280;41326;45.302;-122.946;2023-04-20T06:33:19;102217.07;;;16.80;51.92
55460;BME280;41326;45.302;-122.946;2023-04-20T06:35:49;102225.24;;;16.79;51.94
55460;BME280;41326;45.302;-122.946;2023-04-20T06:38:20;102233.37;;;16.82;51.78
55460;BME280;41326;45.302;-122.946;2023-04-20T06:40:50;102236.52;;;16.81;51.80
55460;BME280;41326;45.302;-122.946;2023-04-20T06:43:20;102235.91;;;16.77;51.90
55460;BME280;41326;45.302;-122.946;2023-04-20T06:45:51;102236.43;;;16.75;51.95
55460;BME280;41326;45.302;-122.946;2023-04-20T06:48:20;102238.72;;;16.75;51.95
55460;BME280;41326;45.302;-122.946;2023-04-20T06:50:52;102243.87;;;16.71;52.04
55460;BME280;41326;45.302;-122.946;2023-04-20T06:53:22;102249.55;;;16.68;52.15
55460;BME280;41326;45.302;-122.946;2023-04-20T06:55:52;102253.50;;;16.68;52.10
55460;BME280;41326;45.302;-122.946;2023-04-20T06:58:22;102252.92;;;16.69;51.97
55460;BME280;41326;45.302;-122.946;2023-04-20T07:00:52;102253.32;;;16.65;52.02
55460;BME280;41326;45.302;-122.946;2023-04-20T07:03:22;102251.73;;;16.67;51.95
55460;BME280;41326;45.302;-122.946;2023-04-20T07:05:53;102249.96;;;16.66;52.01
55460;BME280;41326;45.302;-122.946;2023-04-20T07:08:24;102254.75;;;16.61;52.14
55460;BME280;41326;45.302;-122.946;2023-04-20T07:10:54;102255.25;;;16.59;52.18
55460;BME280;41326;45.302;-122.946;2023-04-20T07:13:25;102257.69;;;16.60;52.09
55460;BME280;41326;45.302;-122.946;2023-04-20T07:15:55;102259.05;;;16.57;52.19
55460;BME280;41326;45.302;-122.946;2023-04-20T07:18:25;102257.49;;;16.58;52.05
55460;BME280;41326;45.302;-122.946;2023-04-20T07:20:56;102258.56;;;16.56;52.07
55460;BME280;41326;45.302;-122.946;2023-04-20T07:23:26;102261.36;;;16.50;52.28
55460;BME280;41326;45.302;-122.946;2023-04-20T07:25:57;102267.52;;;16.46;52.35
55460;BME280;41326;45.302;-122.946;2023-04-20T07:28:27;102270.63;;;16.45;52.41
55460;BME280;41326;45.302;-122.946;2023-04-20T07:30:56;102269.89;;;16.47;52.30
55460;BME280;41326;45.302;-122.946;2023-04-20T07:33:27;102269.33;;;16.41;52.47
55460;BME280;41326;45.302;-122.946;2023-04-20T07:35:56;102269.30;;;16.40;52.47
55460;BME280;41326;45.302;-122.946;2023-04-20T07:38:27;102272.64;;;16.45;52.25
55460;BME280;41326;45.302;-122.946;2023-04-20T07:40:57;102272.81;;;16.37;52.46
55460;BME280;41326;45.302;-122.946;2023-04-20T07:43:28;102271.52;;;16.40;52.31
55460;BME280;41326;45.302;-122.946;2023-04-20T07:45:59;102272.46;;;16.36;52.39
55460;BME280;41326;45.302;-122.946;2023-04-20T07:48:29;102272.23;;;16.36;52.39
55460;BME280;41326;45.302;-122.946;2023-04-20T07:50:59;102279.27;;;16.32;52.45
55460;BME280;41326;45.302;-122.946;2023-04-20T07:53:29;102280.61;;;16.34;52.41
55460;BME280;41326;45.302;-122.946;2023-04-20T07:56:00;102285.21;;;16.30;52.41
55460;BME280;41326;45.302;-122.946;2023-04-20T07:58:30;102285.91;;;16.31;52.33
55460;BME280;41326;45.302;-122.946;2023-04-20T08:01:00;102286.28;;;16.31;52.24
55460;BME280;41326;45.302;-122.946;2023-04-20T08:03:32;102285.51;;;16.26;52.39
55460;BME280;41326;45.302;-122.946;2023-04-20T08:06:01;102287.51;;;16.24;52.43
55460;BME280;41326;45.302;-122.946;2023-04-20T08:08:32;102285.93;;;16.23;52.42
55460;BME280;41326;45.302;-122.946;2023-04-20T08:11:02;102289.18;;;16.21;52.44
55460;BME280;41326;45.302;-122.946;2023-04-20T08:13:33;102285.66;;;16.20;52.39
55460;BME280;41326;45.302;-122.946;2023-04-20T08:16:03;102287.23;;;16.22;52.31
55460;BME280;41326;45.302;-122.946;2023-04-20T08:18:33;102286.00;;;16.17;52.38
55460;BME280;41326;45.302;-122.946;2023-04-20T08:21:04;102285.80;;;16.19;52.27
55460;BME280;41326;45.302;-122.946;2023-04-20T08:23:34;102285.69;;;16.15;52.35
55460;BME280;41326;45.302;-122.946;2023-04-20T08:26:05;102285.28;;;16.11;52.43
55460;BME280;41326;45.302;-122.946;2023-04-20T08:28:35;102283.62;;;16.09;52.50
55460;BME280;41326;45.302;-122.946;2023-04-20T08:31:06;102281.03;;;16.06;52.53
55460;BME280;41326;45.302;-122.946;2023-04-20T08:33:36;102282.08;;;16.04;52.55
55460;BME280;41326;45.302;-122.946;2023-04-20T08:36:06;102276.09;;;16.04;52.43
55460;BME280;41326;45.302;-122.946;2023-04-20T08:38:37;102276.88;;;16.04;52.39
55460;BME280;41326;45.302;-122.946;2023-04-20T08:41:07;102278.89;;;16.06;52.28
55460;BME280;41326;45.302;-122.946;2023-04-20T08:43:37;102281.52;;;16.00;52.44
55460;BME280;41326;45.302;-122.946;2023-04-20T08:46:07;102281.41;;;15.97;52.52
55460;BME280;41326;45.302;-122.946;2023-04-20T08:48:39;102281.76;;;15.95;52.56
55460;BME280;41326;45.302;-122.946;2023-04-20T08:51:08;102285.25;;;15.96;52.43
55460;BME280;41326;45.302;-122.946;2023-04-20T08:53:38;102286.26;;;15.90;52.61
55460;BME280;41326;45.302;-122.946;2023-04-20T08:56:09;102287.05;;;15.90;52.56
55460;BME280;41326;45.302;-122.946;2023-04-20T08:58:39;102287.08;;;15.91;52.42
55460;BME280;41326;45.302;-122.946;2023-04-20T09:01:10;102286.65;;;15.90;52.42
55460;BME280;41326;45.302;-122.946;2023-04-20T09:03:42;102285.91;;;15.89;52.43
55460;BME280;41326;45.302;-122.946;2023-04-20T09:06:13;102285.46;;;15.86;52.48
55460;BME280;41326;45.302;-122.946;2023-04-20T09:08:42;102283.45;;;15.88;52.41
55460;BME280;41326;45.302;-122.946;2023-04-20T09:13:41;102287.14;;;15.79;52.59
55460;BME280;41326;45.302;-122.946;2023-04-20T09:16:15;102290.41;;;15.80;52.52
55460;BME280;41326;45.302;-122.946;2023-04-20T09:21:14;102281.98;;;15.77;52.50
55460;BME280;41326;45.302;-122.946;2023-04-20T09:23:43;102281.06;;;15.73;52.66
55460;BME280;41326;45.302;-122.946;2023-04-20T09:26:18;102281.99;;;15.72;52.59
55460;BME280;41326;45.302;-122.946;2023-04-20T09:28:43;102283.65;;;15.71;52.59
55460;BME280;41326;45.302;-122.946;2023-04-20T09:31:19;102286.56;;;15.70;52.59
55460;BME280;41326;45.302;-122.946;2023-04-20T09:33:53;102287.06;;;15.67;52.66
55460;BME280;41326;45.302;-122.946;2023-04-20T09:36:14;102285.13;;;15.66;52.63
55460;BME280;41326;45.302;-122.946;2023-04-20T09:38:44;102286.49;;;15.63;52.65
55460;BME280;41326;45.302;-122.946;2023-04-20T09:41:15;102288.85;;;15.62;52.64
55460;BME280;41326;45.302;-122.946;2023-04-20T09:43:45;102290.04;;;15.59;52.70
55460;BME280;41326;45.302;-122.946;2023-04-20T09:46:16;102285.68;;;15.59;52.65
55460;BME280;41326;45.302;-122.946;2023-04-20T09:48:47;102287.11;;;15.60;52.58
55460;BME280;41326;45.302;-122.946;2023-04-20T09:51:16;102290.76;;;15.51;52.81
55460;BME280;41326;45.302;-122.946;2023-04-20T09:53:47;102287.85;;;15.50;52.82
55460;BME280;41326;45.302;-122.946;2023-04-20T09:56:17;102288.87;;;15.49;52.81
55460;BME280;41326;45.302;-122.946;2023-04-20T09:58:48;102287.85;;;15.50;52.73
55460;BME280;41326;45.302;-122.946;2023-04-20T10:01:18;102288.33;;;15.49;52.69
55460;BME280;41326;45.302;-122.946;2023-04-20T10:03:48;102283.35;;;15.46;52.76
55460;BME280;41326;45.302;-122.946;2023-04-20T10:06:23;102283.12;;;15.44;52.77
55460;BME280;41326;45.302;-122.946;2023-04-20T10:08:49;102284.27;;;15.43;52.76
55460;BME280;41326;45.302;-122.946;2023-04-20T10:11:28;102283.78;;;15.41;52.85
55460;BME280;41326;45.302;-122.946;2023-04-20T10:13:49;102283.51;;;15.42;52.73
55460;BME280;41326;45.302;-122.946;2023-04-20T10:16:23;102285.22;;;15.40;52.67
55460;BME280;41326;45.302;-122.946;2023-04-20T10:18:56;102285.63;;;15.37;52.74
55460;BME280;41326;45.302;-122.946;2023-04-20T10:21:20;102286.73;;;15.38;52.68
55460;BME280;41326;45.302;-122.946;2023-04-20T10:23:54;102289.90;;;15.34;52.73
55460;BME280;41326;45.302;-122.946;2023-04-20T10:26:21;102285.71;;;15.35;52.70
55460;BME280;41326;45.302;-122.946;2023-04-20T10:28:51;102288.63;;;15.38;52.53
55460;BME280;41326;45.302;-122.946;2023-04-20T10:31:21;102293.78;;;15.34;52.63
55460;BME280;41326;45.302;-122.946;2023-04-20T10:33:56;102296.17;;;15.28;52.80
55460;BME280;41326;45.302;-122.946;2023-04-20T10:36:27;102298.41;;;15.27;52.73
55460;BME280;41326;45.302;-122.946;2023-04-20T10:38:52;102301.03;;;15.31;52.57
55460;BME280;41326;45.302;-122.946;2023-04-20T10:41:22;102304.84;;;15.31;52.50
55460;BME280;41326;45.302;-122.946;2023-04-20T10:43:52;102304.25;;;15.24;52.64
55460;BME280;41326;45.302;-122.946;2023-04-20T10:46:23;102305.55;;;15.22;52.67
55460;BME280;41326;45.302;-122.946;2023-04-20T10:48:55;102303.28;;;15.23;52.64
55460;BME280;41326;45.302;-122.946;2023-04-20T10:51:23;102303.50;;;15.24;52.58
55460;BME280;41326;45.302;-122.946;2023-04-20T10:53:58;102301.31;;;15.16;52.74
55460;BME280;41326;45.302;-122.946;2023-04-20T10:56:24;102300.82;;;15.12;52.82
55460;BME280;41326;45.302;-122.946;2023-04-20T10:58:54;102300.90;;;15.15;52.64
55460;BME280;41326;45.302;-122.946;2023-04-20T11:01:24;102304.28;;;15.13;52.73
55460;BME280;41326;45.302;-122.946;2023-04-20T11:03:55;102307.21;;;15.11;52.73
55460;BME280;41326;45.302;-122.946;2023-04-20T11:06:25;102304.98;;;15.06;52.84
55460;BME280;41326;45.302;-122.946;2023-04-20T11:08:55;102305.04;;;15.05;52.88
55460;BME280;41326;45.302;-122.946;2023-04-20T11:11:26;102310.03;;;15.04;52.86
55460;BME280;41326;45.302;-122.946;2023-04-20T11:16:26;102308.58;;;15.04;52.76
55460;BME280;41326;45.302;-122.946;2023-04-20T11:18:58;102303.00;;;14.99;52.83
55460;BME280;41326;45.302;-122.946;2023-04-20T11:23:57;102300.31;;;14.97;52.83
55460;BME280;41326;45.302;-122.946;2023-04-20T11:26:35;102300.49;;;14.96;52.87
55460;BME280;41326;45.302;-122.946;2023-04-20T11:28:59;102298.06;;;14.94;52.87
55460;BME280;41326;45.302;-122.946;2023-04-20T11:32:36;102291.80;;;14.86;53.09
55460;BME280;41326;45.302;-122.946;2023-04-20T11:35:08;102297.05;;;14.86;53.02
55460;BME280;41326;45.302;-122.946;2023-04-20T11:40:08;102295.59;;;14.91;52.78
55460;BME280;41326;45.302;-122.946;2023-04-20T11:42:38;102296.99;;;14.85;52.93
55460;BME280;41326;45.302;-122.946;2023-04-20T11:45:09;102293.84;;;14.83;52.95
55460;BME280;41326;45.302;-122.946;2023-04-20T11:47:39;102288.43;;;14.78;53.10
55460;BME280;41326;45.302;-122.946;2023-04-20T11:50:10;102288.07;;;14.82;52.91
55460;BME280;41326;45.302;-122.946;2023-04-20T11:52:40;102283.02;;;14.81;52.92
55460;BME280;41326;45.302;-122.946;2023-04-20T11:55:10;102281.56;;;14.77;53.05
55460;BME280;41326;45.302;-122.946;2023-04-20T11:57:40;102272.14;;;14.78;52.92
55460;BME280;41326;45.302;-122.946;2023-04-20T12:00:12;102265.85;;;14.88;52.59
55460;BME280;41326;45.302;-122.946;2023-04-20T12:02:40;102266.59;;;15.09;52.14
55460;BME280;41326;45.302;-122.946;2023-04-20T12:05:12;102264.34;;;15.24;51.87
55460;BME280;41326;45.302;-122.946;2023-04-20T12:07:42;102268.35;;;15.26;51.81
55460;BME280;41326;45.302;-122.946;2023-04-20T12:10:13;102269.73;;;15.26;51.80
55460;BME280;41326;45.302;-122.946;2023-04-20T12:12:43;102269.61;;;15.18;51.93
55460;BME280;41326;45.302;-122.946;2023-04-20T12:15:14;102268.94;;;15.13;52.01
55460;BME280;41326;45.302;-122.946;2023-04-20T12:17:44;102262.92;;;15.09;52.05
55460;BME280;41326;45.302;-122.946;2023-04-20T12:20:15;102257.73;;;15.10;51.96
55460;BME280;41326;45.302;-122.946;2023-04-20T12:22:45;102256.50;;;15.10;51.94
55460;BME280;41326;45.302;-122.946;2023-04-20T12:25:15;102265.49;;;15.07;52.03
55460;BME280;41326;45.302;-122.946;2023-04-20T12:27:45;102268.74;;;15.01;52.16
55460;BME280;41326;45.302;-122.946;2023-04-20T12:30:16;102264.59;;;14.96;52.29
55460;BME280;41326;45.302;-122.946;2023-04-20T12:32:46;102258.88;;;14.93;52.36
55460;BME280;41326;45.302;-122.946;2023-04-20T12:35:16;102255.14;;;14.89;52.42
55460;BME280;41326;45.302;-122.946;2023-04-20T12:37:47;102256.07;;;14.86;52.46
55460;BME280;41326;45.302;-122.946;2023-04-20T12:40:17;102253.27;;;14.96;52.13
55460;BME280;41326;45.302;-122.946;2023-04-20T12:42:48;102243.00;;;15.08;51.98
55460;BME280;41326;45.302;-122.946;2023-04-20T12:45:18;102240.98;;;15.32;51.44
55460;BME280;41326;45.302;-122.946;2023-04-20T12:47:48;102233.66;;;15.54;50.94
55460;BME280;41326;45.302;-122.946;2023-04-20T12:50:19;102228.03;;;15.56;51.02